sensor_id;sensor_type;location;lat;lon;timestamp;P1;durP1;ratioP1;P2;durP2;ratioP2
11671;SDS011;5892;43.412;24.612;2022-09-02T00:00:45;6.53;;;5.60;;
11671;SDS011;5892;43.412;24.612;2022-09-02T00:03:15;8.30;;;6.10;;
11671;SDS011;5892;43.412;24.612;2022-09-02T00:05:43;6.30;;;5.70;;
11671;SDS011;5892;43.412;24.612;2022-09-02T00:08:10;8.83;;;6.27;;
11671;SDS011;5892;43.412;24.612;2022-09-02T00:10:38;8.70;;;5.80;;
11671;SDS011;5892;43.412;24.612;2022-09-02T00:13:08;7.30;;;5.90;;
11671;SDS011;5892;43.412;24.612;2022-09-02T00:15:36;7.30;;;5.77;;
11671;SDS011;5892;43.412;24.612;2022-09-02T00:18:03;7.10;;;6.13;;
11671;SDS011;5892;43.412;24.612;2022-09-02T00:20:32;8.73;;;6.07;;
11671;SDS011;5892;43.412;24.612;2022-09-02T00:22:59;7.80;;;6.03;;
11671;SDS011;5892;43.412;24.612;2022-09-02T00:25:26;8.00;;;6.20;;
11671;SDS011;5892;43.412;24.612;2022-09-02T00:27:53;7.20;;;6.07;;
11671;SDS011;5892;43.412;24.612;2022-09-02T00:30:20;9.47;;;6.03;;
11671;SDS011;5892;43.412;24.612;2022-09-02T00:32:47;6.27;;;5.60;;
11671;SDS011;5892;43.412;24.612;2022-09-02T00:35:14;8.10;;;6.50;;
11671;SDS011;5892;43.412;24.612;2022-09-02T00:37:42;9.37;;;6.13;;
11671;SDS011;5892;43.412;24.612;2022-09-02T00:40:09;7.03;;;6.27;;
11671;SDS011;5892;43.412;24.612;2022-09-02T00:42:37;6.87;;;6.13;;
11671;SDS011;5892;43.412;24.612;2022-09-02T00:45:05;7.10;;;6.10;;
11671;SDS011;5892;43.412;24.612;2022-09-02T00:47:33;8.30;;;6.47;;
11671;SDS011;5892;43.412;24.612;2022-09-02T00:50:01;7.80;;;6.30;;
11671;SDS011;5892;43.412;24.612;2022-09-02T00:52:31;10.63;;;6.43;;
11671;SDS011;5892;43.412;24.612;2022-09-02T00:55:02;8.93;;;6.80;;
11671;SDS011;5892;43.412;24.612;2022-09-02T00:57:35;8.60;;;6.67;;
11671;SDS011;5892;43.412;24.612;2022-09-02T01:00:06;10.00;;;6.53;;
11671;SDS011;5892;43.412;24.612;2022-09-02T01:02:35;7.73;;;6.67;;
11671;SDS011;5892;43.412;24.612;2022-09-02T01:05:06;8.00;;;6.93;;
11671;SDS011;5892;43.412;24.612;2022-09-02T01:07:35;11.10;;;7.07;;
11671;SDS011;5892;43.412;24.612;2022-09-02T01:10:05;8.40;;;7.00;;
11671;SDS011;5892;43.412;24.612;2022-09-02T01:12:34;8.90;;;7.47;;
11671;SDS011;5892;43.412;24.612;2022-09-02T01:15:02;9.23;;;7.60;;
11671;SDS011;5892;43.412;24.612;2022-09-02T01:17:31;11.03;;;7.60;;
11671;SDS011;5892;43.412;24.612;2022-09-02T01:20:00;12.73;;;7.60;;
11671;SDS011;5892;43.412;24.612;2022-09-02T01:22:32;10.87;;;7.83;;
11671;SDS011;5892;43.412;24.612;2022-09-02T01:25:01;10.77;;;8.07;;
11671;SDS011;5892;43.412;24.612;2022-09-02T01:27:30;9.07;;;7.73;;
11671;SDS011;5892;43.412;24.612;2022-09-02T01:29:58;11.10;;;7.97;;
11671;SDS011;5892;43.412;24.612;2022-09-02T01:32:26;9.97;;;8.00;;
11671;SDS011;5892;43.412;24.612;2022-09-02T01:34:54;10.83;;;8.30;;
11671;SDS011;5892;43.412;24.612;2022-09-02T01:37:22;10.47;;;8.67;;
11671;SDS011;5892;43.412;24.612;2022-09-02T01:39:50;9.73;;;8.40;;
11671;SDS011;5892;43.412;24.612;2022-09-02T01:42:18;10.30;;;8.80;;
11671;SDS011;5892;43.412;24.612;2022-09-02T01:44:46;10.20;;;8.57;;
11671;SDS011;5892;43.412;24.612;2022-09-02T01:47:14;9.83;;;8.40;;
11671;SDS011;5892;43.412;24.612;2022-09-02T01:49:43;10.47;;;8.80;;
11671;SDS011;5892;43.412;24.612;2022-09-02T01:52:10;11.30;;;8.70;;
11671;SDS011;5892;43.412;24.612;2022-09-02T01:54:38;10.97;;;8.50;;
11671;SDS011;5892;43.412;24.612;2022-09-02T01:57:06;11.93;;;9.13;;
11671;SDS011;5892;43.412;24.612;2022-09-02T01:59:33;13.00;;;9.30;;
11671;SDS011;5892;43.412;24.612;2022-09-02T02:02:00;11.70;;;8.70;;
11671;SDS011;5892;43.412;24.612;2022-09-02T02:04:27;10.47;;;9.37;;
11671;SDS011;5892;43.412;24.612;2022-09-02T02:06:54;14.77;;;9.23;;
11671;SDS011;5892;43.412;24.612;2022-09-02T02:09:21;12.17;;;9.13;;
11671;SDS011;5892;43.412;24.612;2022-09-02T02:11:49;11.90;;;9.63;;
11671;SDS011;5892;43.412;24.612;2022-09-02T02:14:17;12.23;;;9.60;;
11671;SDS011;5892;43.412;24.612;2022-09-02T02:16:44;10.67;;;8.80;;
11671;SDS011;5892;43.412;24.612;2022-09-02T02:19:13;11.10;;;9.10;;
11671;SDS011;5892;43.412;24.612;2022-09-02T02:21:40;12.50;;;9.03;;
11671;SDS011;5892;43.412;24.612;2022-09-02T02:24:08;10.53;;;9.40;;
11671;SDS011;5892;43.412;24.612;2022-09-02T02:26:35;10.93;;;9.73;;
11671;SDS011;5892;43.412;24.612;2022-09-02T02:29:02;11.07;;;9.87;;
11671;SDS011;5892;43.412;24.612;2022-09-02T02:31:30;12.07;;;9.93;;
11671;SDS011;5892;43.412;24.612;2022-09-02T02:33:57;13.10;;;9.67;;
11671;SDS011;5892;43.412;24.612;2022-09-02T02:36:25;11.10;;;9.93;;
11671;SDS011;5892;43.412;24.612;2022-09-02T02:38:52;10.93;;;9.47;;
11671;SDS011;5892;43.412;24.612;2022-09-02T02:41:20;12.77;;;10.23;;
11671;SDS011;5892;43.412;24.612;2022-09-02T02:43:47;12.17;;;10.63;;
11671;SDS011;5892;43.412;24.612;2022-09-02T02:46:14;13.50;;;10.13;;
11671;SDS011;5892;43.412;24.612;2022-09-02T02:48:43;11.53;;;10.20;;
11671;SDS011;5892;43.412;24.612;2022-09-02T02:51:10;12.10;;;10.60;;
11671;SDS011;5892;43.412;24.612;2022-09-02T02:53:37;12.83;;;11.07;;
11671;SDS011;5892;43.412;24.612;2022-09-02T02:56:04;13.47;;;10.83;;
11671;SDS011;5892;43.412;24.612;2022-09-02T02:58:32;13.63;;;10.90;;
11671;SDS011;5892;43.412;24.612;2022-09-02T03:00:59;12.07;;;10.60;;
11671;SDS011;5892;43.412;24.612;2022-09-02T03:03:26;14.07;;;11.10;;
11671;SDS011;5892;43.412;24.612;2022-09-02T03:05:55;14.97;;;11.57;;
11671;SDS011;5892;43.412;24.612;2022-09-02T03:08:22;15.40;;;11.67;;
11671;SDS011;5892;43.412;24.612;2022-09-02T03:10:51;13.07;;;11.53;;
11671;SDS011;5892;43.412;24.612;2022-09-02T03:13:19;13.73;;;11.57;;
11671;SDS011;5892;43.412;24.612;2022-09-02T03:15:46;15.07;;;12.80;;
11671;SDS011;5892;43.412;24.612;2022-09-02T03:18:14;14.43;;;12.67;;
11671;SDS011;5892;43.412;24.612;2022-09-02T03:20:41;15.63;;;12.13;;
11671;SDS011;5892;43.412;24.612;2022-09-02T03:23:10;20.17;;;12.47;;
11671;SDS011;5892;43.412;24.612;2022-09-02T03:25:40;14.40;;;12.77;;
11671;SDS011;5892;43.412;24.612;2022-09-02T03:28:07;14.93;;;13.37;;
11671;SDS011;5892;43.412;24.612;2022-09-02T03:30:34;15.37;;;13.27;;
11671;SDS011;5892;43.412;24.612;2022-09-02T03:33:02;15.27;;;12.87;;
11671;SDS011;5892;43.412;24.612;2022-09-02T03:35:30;17.03;;;12.87;;
11671;SDS011;5892;43.412;24.612;2022-09-02T03:37:59;14.80;;;13.30;;
11671;SDS011;5892;43.412;24.612;2022-09-02T03:40:27;14.83;;;12.67;;
11671;SDS011;5892;43.412;24.612;2022-09-02T03:42:54;15.60;;;12.60;;
11671;SDS011;5892;43.412;24.612;2022-09-02T03:45:22;16.53;;;12.80;;
11671;SDS011;5892;43.412;24.612;2022-09-02T03:47:49;16.83;;;13.00;;
11671;SDS011;5892;43.412;24.612;2022-09-02T03:50:19;13.50;;;12.17;;
11671;SDS011;5892;43.412;24.612;2022-09-02T03:52:48;16.00;;;12.90;;
11671;SDS011;5892;43.412;24.612;2022-09-02T03:55:15;16.00;;;12.53;;
11671;SDS011;5892;43.412;24.612;2022-09-02T03:57:44;17.70;;;13.00;;
11671;SDS011;5892;43.412;24.612;2022-09-02T04:00:13;16.23;;;13.10;;
11671;SDS011;5892;43.412;24.612;2022-09-02T04:02:41;16.70;;;13.27;;
11671;SDS011;5892;43.412;24.612;2022-09-02T04:05:09;14.07;;;12.53;;
11671;SDS011;5892;43.412;24.612;2022-09-02T04:07:37;20.93;;;13.60;;
11671;SDS011;5892;43.412;24.612;2022-09-02T04:10:04;18.10;;;13.57;;
11671;SDS011;5892;43.412;24.612;2022-09-02T04:12:33;18.80;;;12.87;;
11671;SDS011;5892;43.412;24.612;2022-09-02T04:15:02;17.30;;;12.93;;
11671;SDS011;5892;43.412;24.612;2022-09-02T04:17:29;19.20;;;13.10;;
11671;SDS011;5892;43.412;24.612;2022-09-02T04:19:56;15.70;;;13.17;;
11671;SDS011;5892;43.412;24.612;2022-09-02T04:22:23;16.47;;;13.67;;
11671;SDS011;5892;43.412;24.612;2022-09-02T04:24:50;17.30;;;13.93;;
11671;SDS011;5892;43.412;24.612;2022-09-02T04:27:17;16.73;;;13.97;;
11671;SDS011;5892;43.412;24.612;2022-09-02T04:29:43;17.63;;;14.93;;
11671;SDS011;5892;43.412;24.612;2022-09-02T04:32:12;18.63;;;14.50;;
11671;SDS011;5892;43.412;24.612;2022-09-02T04:34:38;15.97;;;13.73;;
11671;SDS011;5892;43.412;24.612;2022-09-02T04:37:05;15.90;;;14.13;;
11671;SDS011;5892;43.412;24.612;2022-09-02T04:39:32;17.87;;;14.13;;
11671;SDS011;5892;43.412;24.612;2022-09-02T04:41:59;31.70;;;26.53;;
11671;SDS011;5892;43.412;24.612;2022-09-02T04:44:26;20.03;;;17.77;;
11671;SDS011;5892;43.412;24.612;2022-09-02T04:46:53;18.87;;;13.70;;
11671;SDS011;5892;43.412;24.612;2022-09-02T04:49:21;18.37;;;14.00;;
11671;SDS011;5892;43.412;24.612;2022-09-02T04:51:48;15.77;;;13.23;;
11671;SDS011;5892;43.412;24.612;2022-09-02T04:54:15;15.00;;;13.37;;
11671;SDS011;5892;43.412;24.612;2022-09-02T04:56:42;15.80;;;14.13;;
11671;SDS011;5892;43.412;24.612;2022-09-02T04:59:09;15.90;;;14.20;;
11671;SDS011;5892;43.412;24.612;2022-09-02T05:01:36;18.40;;;13.70;;
11671;SDS011;5892;43.412;24.612;2022-09-02T05:04:03;17.40;;;14.03;;
11671;SDS011;5892;43.412;24.612;2022-09-02T05:06:35;16.07;;;13.37;;
11671;SDS011;5892;43.412;24.612;2022-09-02T05:09:04;17.97;;;13.67;;
11671;SDS011;5892;43.412;24.612;2022-09-02T05:11:32;17.40;;;13.43;;
11671;SDS011;5892;43.412;24.612;2022-09-02T05:14:02;17.27;;;13.03;;
11671;SDS011;5892;43.412;24.612;2022-09-02T05:16:31;17.40;;;13.37;;
11671;SDS011;5892;43.412;24.612;2022-09-02T05:19:00;17.10;;;13.00;;
11671;SDS011;5892;43.412;24.612;2022-09-02T05:21:29;17.17;;;13.10;;
11671;SDS011;5892;43.412;24.612;2022-09-02T05:23:57;16.27;;;12.40;;
11671;SDS011;5892;43.412;24.612;2022-09-02T05:26:25;14.63;;;13.13;;
11671;SDS011;5892;43.412;24.612;2022-09-02T05:28:52;18.77;;;13.40;;
11671;SDS011;5892;43.412;24.612;2022-09-02T05:31:20;15.97;;;12.80;;
11671;SDS011;5892;43.412;24.612;2022-09-02T05:33:47;16.00;;;13.53;;
11671;SDS011;5892;43.412;24.612;2022-09-02T05:36:15;19.00;;;12.97;;
11671;SDS011;5892;43.412;24.612;2022-09-02T05:38:44;19.67;;;14.40;;
11671;SDS011;5892;43.412;24.612;2022-09-02T05:41:14;17.10;;;14.20;;
11671;SDS011;5892;43.412;24.612;2022-09-02T05:43:44;16.80;;;14.87;;
11671;SDS011;5892;43.412;24.612;2022-09-02T05:46:13;18.53;;;13.70;;
11671;SDS011;5892;43.412;24.612;2022-09-02T05:48:43;20.40;;;15.20;;
11671;SDS011;5892;43.412;24.612;2022-09-02T05:51:28;17.50;;;15.23;;
11671;SDS011;5892;43.412;24.612;2022-09-02T05:53:57;19.20;;;15.37;;
11671;SDS011;5892;43.412;24.612;2022-09-02T05:56:27;17.10;;;13.00;;
11671;SDS011;5892;43.412;24.612;2022-09-02T05:58:54;16.37;;;13.90;;
11671;SDS011;5892;43.412;24.612;2022-09-02T06:01:23;17.30;;;12.97;;
11671;SDS011;5892;43.412;24.612;2022-09-02T06:03:50;15.93;;;13.30;;
11671;SDS011;5892;43.412;24.612;2022-09-02T06:06:18;15.00;;;13.40;;
11671;SDS011;5892;43.412;24.612;2022-09-02T06:08:48;14.63;;;12.57;;
11671;SDS011;5892;43.412;24.612;2022-09-02T06:11:15;15.60;;;12.90;;
11671;SDS011;5892;43.412;24.612;2022-09-02T06:13:44;15.20;;;13.50;;
11671;SDS011;5892;43.412;24.612;2022-09-02T06:16:13;19.23;;;14.00;;
11671;SDS011;5892;43.412;24.612;2022-09-02T06:18:41;16.20;;;14.43;;
11671;SDS011;5892;43.412;24.612;2022-09-02T06:21:08;18.07;;;13.70;;
11671;SDS011;5892;43.412;24.612;2022-09-02T06:23:35;16.50;;;13.73;;
11671;SDS011;5892;43.412;24.612;2022-09-02T06:26:04;13.80;;;12.40;;
11671;SDS011;5892;43.412;24.612;2022-09-02T06:28:32;16.63;;;12.67;;
11671;SDS011;5892;43.412;24.612;2022-09-02T06:31:04;13.80;;;11.57;;
11671;SDS011;5892;43.412;24.612;2022-09-02T06:33:32;16.83;;;12.17;;
11671;SDS011;5892;43.412;24.612;2022-09-02T06:35:59;14.03;;;12.03;;
11671;SDS011;5892;43.412;24.612;2022-09-02T06:38:26;15.70;;;12.40;;
11671;SDS011;5892;43.412;24.612;2022-09-02T06:40:53;13.67;;;11.90;;
11671;SDS011;5892;43.412;24.612;2022-09-02T06:43:20;15.00;;;11.53;;
11671;SDS011;5892;43.412;24.612;2022-09-02T06:45:48;13.10;;;11.80;;
11671;SDS011;5892;43.412;24.612;2022-09-02T06:48:16;23.17;;;12.63;;
11671;SDS011;5892;43.412;24.612;2022-09-02T06:50:44;12.70;;;11.40;;
11671;SDS011;5892;43.412;24.612;2022-09-02T06:53:12;14.33;;;10.90;;
11671;SDS011;5892;43.412;24.612;2022-09-02T06:55:42;13.57;;;12.00;;
11671;SDS011;5892;43.412;24.612;2022-09-02T06:58:12;13.70;;;12.10;;
11671;SDS011;5892;43.412;24.612;2022-09-02T07:00:39;15.03;;;11.90;;
11671;SDS011;5892;43.412;24.612;2022-09-02T07:03:07;15.73;;;12.03;;
11671;SDS011;5892;43.412;24.612;2022-09-02T07:06:04;13.67;;;11.83;;
11671;SDS011;5892;43.412;24.612;2022-09-02T07:08:34;16.50;;;12.20;;
11671;SDS011;5892;43.412;24.612;2022-09-02T07:11:02;15.13;;;12.10;;
11671;SDS011;5892;43.412;24.612;2022-09-02T07:13:31;14.57;;;12.43;;
11671;SDS011;5892;43.412;24.612;2022-09-02T07:15:57;14.73;;;11.27;;
11671;SDS011;5892;43.412;24.612;2022-09-02T07:18:25;15.23;;;12.30;;
11671;SDS011;5892;43.412;24.612;2022-09-02T07:20:52;17.23;;;12.47;;
11671;SDS011;5892;43.412;24.612;2022-09-02T07:23:22;18.67;;;13.53;;
11671;SDS011;5892;43.412;24.612;2022-09-02T07:25:49;15.17;;;12.90;;
11671;SDS011;5892;43.412;24.612;2022-09-02T07:28:16;14.23;;;12.53;;
11671;SDS011;5892;43.412;24.612;2022-09-02T07:30:43;16.37;;;13.83;;
11671;SDS011;5892;43.412;24.612;2022-09-02T07:33:10;15.37;;;12.90;;
11671;SDS011;5892;43.412;24.612;2022-09-02T07:35:38;15.93;;;14.03;;
11671;SDS011;5892;43.412;24.612;2022-09-02T07:38:06;14.40;;;12.90;;
11671;SDS011;5892;43.412;24.612;2022-09-02T07:40:36;18.07;;;13.43;;
11671;SDS011;5892;43.412;24.612;2022-09-02T07:43:04;14.33;;;12.83;;
11671;SDS011;5892;43.412;24.612;2022-09-02T07:45:33;15.63;;;13.93;;
11671;SDS011;5892;43.412;24.612;2022-09-02T07:48:01;18.40;;;13.87;;
11671;SDS011;5892;43.412;24.612;2022-09-02T07:50:31;16.03;;;14.07;;
11671;SDS011;5892;43.412;24.612;2022-09-02T07:53:00;18.20;;;13.70;;
11671;SDS011;5892;43.412;24.612;2022-09-02T07:55:31;17.10;;;14.50;;
11671;SDS011;5892;43.412;24.612;2022-09-02T07:58:02;15.17;;;13.67;;
11671;SDS011;5892;43.412;24.612;2022-09-02T08:00:29;18.00;;;14.67;;
11671;SDS011;5892;43.412;24.612;2022-09-02T08:02:56;18.07;;;14.43;;
11671;SDS011;5892;43.412;24.612;2022-09-02T08:05:24;19.27;;;13.73;;
11671;SDS011;5892;43.412;24.612;2022-09-02T08:07:51;17.50;;;13.63;;
11671;SDS011;5892;43.412;24.612;2022-09-02T08:10:18;18.50;;;14.37;;
11671;SDS011;5892;43.412;24.612;2022-09-02T08:12:47;17.23;;;14.00;;
11671;SDS011;5892;43.412;24.612;2022-09-02T08:15:16;15.57;;;13.87;;
11671;SDS011;5892;43.412;24.612;2022-09-02T08:17:45;16.13;;;14.53;;
11671;SDS011;5892;43.412;24.612;2022-09-02T08:20:13;20.00;;;14.47;;
11671;SDS011;5892;43.412;24.612;2022-09-02T08:22:44;19.67;;;15.00;;
11671;SDS011;5892;43.412;24.612;2022-09-02T08:25:12;16.33;;;13.77;;
11671;SDS011;5892;43.412;24.612;2022-09-02T08:27:41;16.47;;;13.50;;
11671;SDS011;5892;43.412;24.612;2022-09-02T08:30:09;15.20;;;13.37;;
11671;SDS011;5892;43.412;24.612;2022-09-02T08:32:39;15.33;;;13.33;;
11671;SDS011;5892;43.412;24.612;2022-09-02T08:35:07;18.33;;;14.57;;
11671;SDS011;5892;43.412;24.612;2022-09-02T08:37:35;16.13;;;14.43;;
11671;SDS011;5892;43.412;24.612;2022-09-02T08:40:04;14.40;;;12.90;;
11671;SDS011;5892;43.412;24.612;2022-09-02T08:42:34;16.13;;;13.53;;
11671;SDS011;5892;43.412;24.612;2022-09-02T08:45:05;16.00;;;13.27;;
11671;SDS011;5892;43.412;24.612;2022-09-02T08:47:39;18.07;;;13.80;;
11671;SDS011;5892;43.412;24.612;2022-09-02T08:50:10;15.83;;;14.07;;
11671;SDS011;5892;43.412;24.612;2022-09-02T08:52:40;14.63;;;13.10;;
11671;SDS011;5892;43.412;24.612;2022-09-02T08:55:12;16.20;;;13.27;;
11671;SDS011;5892;43.412;24.612;2022-09-02T08:57:44;15.90;;;12.87;;
11671;SDS011;5892;43.412;24.612;2022-09-02T09:00:12;18.13;;;13.73;;
11671;SDS011;5892;43.412;24.612;2022-09-02T09:02:47;15.97;;;12.90;;
11671;SDS011;5892;43.412;24.612;2022-09-02T09:05:27;13.40;;;11.70;;
11671;SDS011;5892;43.412;24.612;2022-09-02T09:08:05;18.27;;;13.90;;
11671;SDS011;5892;43.412;24.612;2022-09-02T09:10:41;19.27;;;13.60;;
11671;SDS011;5892;43.412;24.612;2022-09-02T09:13:31;18.10;;;11.93;;
11671;SDS011;5892;43.412;24.612;2022-09-02T09:16:14;14.20;;;11.60;;
11671;SDS011;5892;43.412;24.612;2022-09-02T09:18:52;15.17;;;12.43;;
11671;SDS011;5892;43.412;24.612;2022-09-02T09:21:26;18.13;;;11.70;;
11671;SDS011;5892;43.412;24.612;2022-09-02T09:23:55;14.57;;;12.53;;
11671;SDS011;5892;43.412;24.612;2022-09-02T09:26:25;15.33;;;12.20;;
11671;SDS011;5892;43.412;24.612;2022-09-02T09:28:54;16.90;;;11.93;;
11671;SDS011;5892;43.412;24.612;2022-09-02T09:31:26;14.37;;;11.27;;
11671;SDS011;5892;43.412;24.612;2022-09-02T09:34:00;15.30;;;11.87;;
11671;SDS011;5892;43.412;24.612;2022-09-02T09:36:49;17.50;;;12.63;;
11671;SDS011;5892;43.412;24.612;2022-09-02T09:39:19;17.30;;;12.10;;
11671;SDS011;5892;43.412;24.612;2022-09-02T09:41:49;14.20;;;12.70;;
11671;SDS011;5892;43.412;24.612;2022-09-02T09:44:33;14.67;;;12.07;;
11671;SDS011;5892;43.412;24.612;2022-09-02T09:47:04;17.20;;;12.67;;
11671;SDS011;5892;43.412;24.612;2022-09-02T09:49:34;15.63;;;12.17;;
11671;SDS011;5892;43.412;24.612;2022-09-02T09:52:02;14.90;;;11.90;;
11671;SDS011;5892;43.412;24.612;2022-09-02T09:54:29;13.30;;;11.90;;
11671;SDS011;5892;43.412;24.612;2022-09-02T09:56:56;16.57;;;12.00;;
11671;SDS011;5892;43.412;24.612;2022-09-02T09:59:40;14.23;;;11.40;;
11671;SDS011;5892;43.412;24.612;2022-09-02T10:02:12;14.83;;;11.33;;
11671;SDS011;5892;43.412;24.612;2022-09-02T10:04:47;14.40;;;12.00;;
11671;SDS011;5892;43.412;24.612;2022-09-02T10:07:17;15.60;;;12.33;;
11671;SDS011;5892;43.412;24.612;2022-09-02T10:10:07;15.03;;;11.50;;
11671;SDS011;5892;43.412;24.612;2022-09-02T10:12:41;17.87;;;12.20;;
11671;SDS011;5892;43.412;24.612;2022-09-02T10:15:08;13.30;;;11.90;;
11671;SDS011;5892;43.412;24.612;2022-09-02T10:17:36;15.60;;;11.27;;
11671;SDS011;5892;43.412;24.612;2022-09-02T10:20:11;13.93;;;11.07;;
11671;SDS011;5892;43.412;24.612;2022-09-02T10:22:56;13.83;;;11.17;;
11671;SDS011;5892;43.412;24.612;2022-09-02T10:25:33;15.03;;;11.17;;
11671;SDS011;5892;43.412;24.612;2022-09-02T10:28:12;16.17;;;10.97;;
11671;SDS011;5892;43.412;24.612;2022-09-02T10:30:53;13.03;;;11.10;;
11671;SDS011;5892;43.412;24.612;2022-09-02T10:33:29;17.47;;;10.57;;
11671;SDS011;5892;43.412;24.612;2022-09-02T10:36:06;12.30;;;10.20;;
11671;SDS011;5892;43.412;24.612;2022-09-02T10:38:41;10.93;;;9.40;;
11671;SDS011;5892;43.412;24.612;2022-09-02T10:41:21;12.47;;;9.53;;
11671;SDS011;5892;43.412;24.612;2022-09-02T10:44:02;12.40;;;9.83;;
11671;SDS011;5892;43.412;24.612;2022-09-02T10:46:44;15.20;;;10.60;;
11671;SDS011;5892;43.412;24.612;2022-09-02T10:49:20;13.40;;;9.73;;
11671;SDS011;5892;43.412;24.612;2022-09-02T10:51:58;13.87;;;10.70;;
11671;SDS011;5892;43.412;24.612;2022-09-02T10:54:36;13.47;;;10.83;;
11671;SDS011;5892;43.412;24.612;2022-09-02T10:57:13;12.10;;;10.20;;
11671;SDS011;5892;43.412;24.612;2022-09-02T10:59:46;18.47;;;11.03;;
11671;SDS011;5892;43.412;24.612;2022-09-02T11:02:18;17.63;;;11.07;;
11671;SDS011;5892;43.412;24.612;2022-09-02T11:04:51;11.60;;;10.17;;
11671;SDS011;5892;43.412;24.612;2022-09-02T11:07:23;14.50;;;10.80;;
11671;SDS011;5892;43.412;24.612;2022-09-02T11:09:55;15.37;;;10.43;;
11671;SDS011;5892;43.412;24.612;2022-09-02T11:12:29;15.50;;;11.17;;
11671;SDS011;5892;43.412;24.612;2022-09-02T11:15:02;15.30;;;11.37;;
11671;SDS011;5892;43.412;24.612;2022-09-02T11:17:38;20.40;;;12.27;;
11671;SDS011;5892;43.412;24.612;2022-09-02T11:20:11;14.53;;;11.83;;
11671;SDS011;5892;43.412;24.612;2022-09-02T11:22:51;19.47;;;11.17;;
11671;SDS011;5892;43.412;24.612;2022-09-02T11:25:23;13.03;;;10.93;;
11671;SDS011;5892;43.412;24.612;2022-09-02T11:27:55;14.50;;;11.50;;
11671;SDS011;5892;43.412;24.612;2022-09-02T11:30:30;14.33;;;11.60;;
11671;SDS011;5892;43.412;24.612;2022-09-02T11:33:10;14.83;;;11.07;;
11671;SDS011;5892;43.412;24.612;2022-09-02T11:35:41;13.73;;;11.50;;
11671;SDS011;5892;43.412;24.612;2022-09-02T11:38:16;12.70;;;11.23;;
11671;SDS011;5892;43.412;24.612;2022-09-02T11:40:58;13.87;;;11.47;;
11671;SDS011;5892;43.412;24.612;2022-09-02T11:43:43;13.17;;;11.07;;
11671;SDS011;5892;43.412;24.612;2022-09-02T11:46:23;12.73;;;10.20;;
11671;SDS011;5892;43.412;24.612;2022-09-02T11:49:08;13.47;;;11.63;;
11671;SDS011;5892;43.412;24.612;2022-09-02T11:51:51;17.20;;;11.30;;
11671;SDS011;5892;43.412;24.612;2022-09-02T11:54:31;14.47;;;11.47;;
11671;SDS011;5892;43.412;24.612;2022-09-02T11:57:02;11.53;;;10.23;;
11671;SDS011;5892;43.412;24.612;2022-09-02T12:02:33;14.43;;;10.57;;
11671;SDS011;5892;43.412;24.612;2022-09-02T12:08:09;13.27;;;10.90;;
11671;SDS011;5892;43.412;24.612;2022-09-02T12:13:31;12.73;;;10.63;;
11671;SDS011;5892;43.412;24.612;2022-09-02T12:19:15;13.50;;;10.97;;
11671;SDS011;5892;43.412;24.612;2022-09-02T12:24:52;13.73;;;10.67;;
11671;SDS011;5892;43.412;24.612;2022-09-02T12:27:26;15.70;;;10.63;;
11671;SDS011;5892;43.412;24.612;2022-09-02T12:29:54;12.73;;;10.57;;
11671;SDS011;5892;43.412;24.612;2022-09-02T12:35:34;14.40;;;10.37;;
11671;SDS011;5892;43.412;24.612;2022-09-02T12:38:21;11.10;;;10.00;;
11671;SDS011;5892;43.412;24.612;2022-09-02T12:40:52;11.00;;;9.00;;
11671;SDS011;5892;43.412;24.612;2022-09-02T12:43:25;12.23;;;9.73;;
11671;SDS011;5892;43.412;24.612;2022-09-02T12:45:59;12.67;;;9.67;;
11671;SDS011;5892;43.412;24.612;2022-09-02T12:48:35;11.83;;;8.87;;
11671;SDS011;5892;43.412;24.612;2022-09-02T12:51:06;10.47;;;9.27;;
11671;SDS011;5892;43.412;24.612;2022-09-02T12:53:34;11.93;;;9.33;;
11671;SDS011;5892;43.412;24.612;2022-09-02T12:56:05;12.53;;;10.27;;
11671;SDS011;5892;43.412;24.612;2022-09-02T12:58:48;11.67;;;9.00;;
11671;SDS011;5892;43.412;24.612;2022-09-02T13:01:18;11.20;;;9.30;;
11671;SDS011;5892;43.412;24.612;2022-09-02T13:04:06;11.57;;;9.13;;
11671;SDS011;5892;43.412;24.612;2022-09-02T13:06:56;11.13;;;9.57;;
11671;SDS011;5892;43.412;24.612;2022-09-02T13:13:13;9.80;;;8.80;;
11671;SDS011;5892;43.412;24.612;2022-09-02T13:25:21;9.97;;;7.00;;
11671;SDS011;5892;43.412;24.612;2022-09-02T13:28:09;14.67;;;7.23;;
11671;SDS011;5892;43.412;24.612;2022-09-02T13:33:59;12.93;;;6.50;;
11671;SDS011;5892;43.412;24.612;2022-09-02T13:36:31;7.67;;;5.60;;
11671;SDS011;5892;43.412;24.612;2022-09-02T13:39:14;12.23;;;5.50;;
11671;SDS011;5892;43.412;24.612;2022-09-02T13:41:43;8.10;;;5.40;;
11671;SDS011;5892;43.412;24.612;2022-09-02T13:44:12;7.83;;;5.57;;
11671;SDS011;5892;43.412;24.612;2022-09-02T13:46:49;6.50;;;4.80;;
11671;SDS011;5892;43.412;24.612;2022-09-02T13:49:21;7.63;;;5.27;;
11671;SDS011;5892;43.412;24.612;2022-09-02T13:51:52;9.70;;;4.80;;
11671;SDS011;5892;43.412;24.612;2022-09-02T13:54:23;7.43;;;4.90;;
11671;SDS011;5892;43.412;24.612;2022-09-02T13:56:55;6.70;;;4.20;;
11671;SDS011;5892;43.412;24.612;2022-09-02T13:59:33;6.13;;;4.40;;
11671;SDS011;5892;43.412;24.612;2022-09-02T14:02:17;7.20;;;4.37;;
11671;SDS011;5892;43.412;24.612;2022-09-02T14:04:48;9.90;;;4.10;;
11671;SDS011;5892;43.412;24.612;2022-09-02T14:07:21;7.27;;;4.60;;
11671;SDS011;5892;43.412;24.612;2022-09-02T14:09:54;9.70;;;4.53;;
11671;SDS011;5892;43.412;24.612;2022-09-02T14:12:22;9.23;;;4.30;;
11671;SDS011;5892;43.412;24.612;2022-09-02T14:14:52;7.10;;;4.20;;
11671;SDS011;5892;43.412;24.612;2022-09-02T14:17:22;15.43;;;4.67;;
11671;SDS011;5892;43.412;24.612;2022-09-02T14:19:51;7.20;;;4.60;;
11671;SDS011;5892;43.412;24.612;2022-09-02T14:22:33;15.30;;;4.97;;
11671;SDS011;5892;43.412;24.612;2022-09-02T14:25:06;8.60;;;5.00;;
11671;SDS011;5892;43.412;24.612;2022-09-02T14:27:34;12.07;;;4.93;;
11671;SDS011;5892;43.412;24.612;2022-09-02T14:30:05;7.83;;;4.60;;
11671;SDS011;5892;43.412;24.612;2022-09-02T14:32:36;10.83;;;4.93;;
11671;SDS011;5892;43.412;24.612;2022-09-02T14:35:11;6.80;;;4.80;;
11671;SDS011;5892;43.412;24.612;2022-09-02T14:37:47;9.10;;;5.30;;
11671;SDS011;5892;43.412;24.612;2022-09-02T14:40:30;8.77;;;4.93;;
11671;SDS011;5892;43.412;24.612;2022-09-02T14:43:03;11.93;;;4.80;;
11671;SDS011;5892;43.412;24.612;2022-09-02T14:45:38;9.70;;;4.93;;
11671;SDS011;5892;43.412;24.612;2022-09-02T14:48:26;12.17;;;4.90;;
11671;SDS011;5892;43.412;24.612;2022-09-02T14:51:10;12.93;;;4.77;;
11671;SDS011;5892;43.412;24.612;2022-09-02T14:53:42;11.47;;;4.90;;
11671;SDS011;5892;43.412;24.612;2022-09-02T14:56:10;9.77;;;4.93;;
11671;SDS011;5892;43.412;24.612;2022-09-02T14:58:37;8.70;;;4.87;;
11671;SDS011;5892;43.412;24.612;2022-09-02T15:01:05;10.23;;;4.87;;
11671;SDS011;5892;43.412;24.612;2022-09-02T15:03:36;11.63;;;5.40;;
11671;SDS011;5892;43.412;24.612;2022-09-02T15:06:04;12.93;;;5.80;;
11671;SDS011;5892;43.412;24.612;2022-09-02T15:08:36;10.43;;;5.83;;
11671;SDS011;5892;43.412;24.612;2022-09-02T15:11:05;9.00;;;5.20;;
11671;SDS011;5892;43.412;24.612;2022-09-02T15:13:32;10.70;;;5.17;;
11671;SDS011;5892;43.412;24.612;2022-09-02T15:15:59;12.10;;;4.97;;
11671;SDS011;5892;43.412;24.612;2022-09-02T15:18:29;8.03;;;4.60;;
11671;SDS011;5892;43.412;24.612;2022-09-02T15:21:15;9.53;;;4.40;;
11671;SDS011;5892;43.412;24.612;2022-09-02T15:23:43;10.77;;;4.73;;